createdAt,value
2018-05-09T00:00:16.886Z,59.50
2018-05-09T00:02:42.916Z,59.50
2018-05-09T00:05:08.965Z,60.00
2018-05-09T00:07:35.009Z,60.50
2018-05-09T00:10:01.045Z,61.10
2018-05-09T00:12:27.156Z,61.30
2018-05-09T00:14:53.151Z,61.70
2018-05-09T00:17:19.261Z,62.00
2018-05-09T00:19:45.215Z,62.40
2018-05-09T00:22:11.199Z,62.60
2018-05-09T00:24:37.216Z,62.90
2018-05-09T00:27:03.259Z,63.30
2018-05-09T00:29:29.324Z,63.90
2018-05-09T00:31:55.304Z,64.40
2018-05-09T00:34:21.295Z,65.00
2018-05-09T00:36:47.292Z,64.80
2018-05-09T00:39:13.308Z,64.40
2018-05-09T00:41:39.455Z,64.80
2018-05-09T00:44:05.351Z,65.20
2018-05-09T00:46:31.527Z,65.40
2018-05-09T00:48:57.512Z,65.80
2018-05-09T00:51:23.540Z,66.00
2018-05-09T00:53:50.308Z,66.10
2018-05-09T00:56:16.312Z,66.40
2018-05-09T00:58:43.297Z,66.60
2018-05-09T01:01:09.328Z,67.00
2018-05-09T01:03:35.352Z,67.60
2018-05-09T01:06:01.349Z,67.70
2018-05-09T01:08:27.455Z,67.30
2018-05-09T01:10:53.388Z,67.20
2018-05-09T01:13:19.476Z,67.60
2018-05-09T01:15:45.470Z,68.10
2018-05-09T01:18:12.108Z,68.00
2018-05-09T01:20:38.394Z,68.00
2018-05-09T01:23:04.439Z,67.80
2018-05-09T01:25:30.508Z,67.50
2018-05-09T01:27:56.519Z,68.20
2018-05-09T01:30:22.505Z,68.80
2018-05-09T01:32:48.544Z,69.50
2018-05-09T01:35:14.521Z,70.40
2018-05-09T01:37:40.571Z,70.70
2018-05-09T01:40:06.642Z,71.10
2018-05-09T01:42:32.664Z,71.70
2018-05-09T01:44:58.712Z,72.40
2018-05-09T01:47:24.768Z,73.10
2018-05-09T01:49:50.777Z,73.30
2018-05-09T01:52:16.815Z,73.80
2018-05-09T01:54:43.014Z,74.00
2018-05-09T01:57:09.087Z,73.90
2018-05-09T01:59:35.137Z,73.80
2018-05-09T02:02:01.124Z,73.60
2018-05-09T02:04:27.134Z,73.00
2018-05-09T02:06:53.109Z,73.80
2018-05-09T02:23:33.261Z,75.20
2018-05-09T02:25:59.321Z,75.50
2018-05-09T02:28:25.284Z,75.60
2018-05-09T02:30:51.304Z,76.00
2018-05-09T02:33:17.949Z,76.00
2018-05-09T02:35:44.022Z,76.30
2018-05-09T02:38:09.977Z,76.80
2018-05-09T02:40:36.035Z,77.10
2018-05-09T02:43:02.062Z,77.80
2018-05-09T02:45:28.070Z,79.00
2018-05-09T02:47:54.155Z,80.40
2018-05-09T02:50:20.172Z,80.60
2018-05-09T02:52:46.236Z,80.40
2018-05-09T02:55:12.356Z,80.70
2018-05-09T02:57:38.573Z,80.70
2018-05-09T03:00:05.134Z,81.00
2018-05-09T03:02:31.179Z,81.00
2018-05-09T03:04:57.159Z,81.60
2018-05-09T03:07:23.118Z,82.40
2018-05-09T03:09:49.101Z,83.40
2018-05-09T03:26:28.545Z,86.70
2018-05-09T03:28:54.534Z,87.80
2018-05-09T03:31:20.530Z,89.50
2018-05-09T03:33:47.829Z,90.20
2018-05-09T03:36:13.872Z,90.40
2018-05-09T03:38:39.870Z,90.60
2018-05-09T03:41:06.821Z,90.80
2018-05-09T03:43:32.806Z,91.00
2018-05-09T03:45:58.884Z,91.00
2018-05-09T03:48:24.884Z,90.60
2018-05-09T03:50:50.892Z,90.90
2018-05-09T03:53:17.367Z,91.10
2018-05-09T03:55:43.564Z,91.50
2018-05-09T03:58:09.733Z,91.70
2018-05-09T04:00:35.841Z,91.80
2018-05-09T04:03:14.230Z,91.90
2018-05-09T04:05:53.420Z,92.00
2018-05-09T04:08:31.772Z,92.10
2018-05-09T04:10:57.846Z,92.40
2018-05-09T04:13:23.924Z,92.90
2018-05-09T04:15:51.736Z,93.30
2018-05-09T04:18:17.974Z,93.50
2018-05-09T04:20:44.207Z,93.50
2018-05-09T04:23:10.175Z,93.10
2018-05-09T04:25:36.429Z,92.90
2018-05-09T04:28:02.571Z,93.00
2018-05-09T04:30:28.542Z,92.80
2018-05-09T04:32:54.548Z,92.90
2018-05-09T04:35:21.125Z,93.00
2018-05-09T04:37:47.246Z,93.80
2018-05-09T04:40:13.270Z,93.50
2018-05-09T04:42:39.417Z,93.70
2018-05-09T04:45:05.371Z,94.00
2018-05-09T04:47:31.394Z,93.90
2018-05-09T04:49:57.596Z,93.40
2018-05-09T04:52:23.690Z,93.40
2018-05-09T05:09:06.015Z,94.00
2018-05-09T05:28:17.304Z,94.00
2018-05-09T05:30:43.612Z,93.60
2018-05-09T05:33:09.585Z,93.10
2018-05-09T05:35:35.623Z,92.70
2018-05-09T05:38:01.744Z,92.60
2018-05-09T05:40:27.803Z,92.40
2018-05-09T05:42:54.340Z,92.30
2018-05-09T05:45:20.560Z,92.60
2018-05-09T05:47:46.586Z,92.90
2018-05-09T05:50:12.622Z,93.10
2018-05-09T05:52:38.850Z,93.20
2018-05-09T05:55:05.048Z,92.40
2018-05-09T05:57:31.050Z,91.40
2018-05-09T05:59:57.669Z,90.90
2018-05-09T06:02:23.736Z,91.00
2018-05-09T06:04:49.818Z,91.20
2018-05-09T06:07:15.993Z,91.30
2018-05-09T06:09:42.028Z,90.40
2018-05-09T06:12:08.119Z,90.60
2018-05-09T06:14:34.678Z,90.30
2018-05-09T06:17:01.712Z,90.00
2018-05-09T06:19:28.383Z,88.70
2018-05-09T06:21:54.469Z,88.80
2018-05-09T06:24:20.483Z,88.20
2018-05-09T06:26:46.594Z,86.40
2018-05-09T06:29:12.564Z,86.60
2018-05-09T06:31:38.649Z,85.60
2018-05-09T06:34:06.273Z,85.60
2018-05-09T06:36:32.358Z,87.50
2018-05-09T06:38:59.636Z,85.60
2018-05-09T06:41:25.736Z,84.50
2018-05-09T06:43:52.557Z,84.40
2018-05-09T06:46:18.618Z,83.80
2018-05-09T06:48:45.050Z,84.00
2018-05-09T06:51:11.658Z,83.60
2018-05-09T06:53:38.226Z,82.40
2018-05-09T06:56:04.310Z,81.90
2018-05-09T06:58:31.371Z,82.20
2018-05-09T07:00:58.579Z,81.00
2018-05-09T07:03:25.418Z,80.70
2018-05-09T07:05:52.121Z,80.60
2018-05-09T07:08:18.968Z,80.10
2018-05-09T07:10:45.810Z,78.20
2018-05-09T07:13:11.847Z,78.80
2018-05-09T07:15:38.042Z,78.80
2018-05-09T07:18:04.092Z,78.30
2018-05-09T07:20:30.494Z,78.60
2018-05-09T07:22:56.648Z,77.40
2018-05-09T07:25:22.732Z,76.70
2018-05-09T07:27:49.407Z,76.30
2018-05-09T07:30:15.533Z,76.10
2018-05-09T07:32:41.630Z,75.90
2018-05-09T07:35:08.040Z,75.00
2018-05-09T07:37:34.077Z,75.00
2018-05-09T07:40:00.128Z,74.20
2018-05-09T07:42:27.689Z,74.30
2018-05-09T07:44:53.769Z,73.50
2018-05-09T07:47:19.789Z,73.60
2018-05-09T07:49:45.952Z,73.50
2018-05-09T07:52:12.708Z,74.30
2018-05-09T07:54:39.333Z,74.60
2018-05-09T07:57:05.422Z,75.00
2018-05-09T07:59:31.501Z,74.30
2018-05-09T08:01:58.135Z,73.20
2018-05-09T08:04:25.048Z,71.40
2018-05-09T08:06:51.991Z,71.60
2018-05-09T08:09:18.041Z,72.00
2018-05-09T08:11:44.133Z,72.30
2018-05-09T08:14:10.502Z,72.70
2018-05-09T08:16:36.514Z,72.00
2018-05-09T08:19:02.527Z,71.10
2018-05-09T08:21:28.564Z,71.10
2018-05-09T08:23:54.671Z,71.60
2018-05-09T08:26:20.658Z,71.40
2018-05-09T08:28:46.659Z,71.10
2018-05-09T08:31:12.637Z,70.80
2018-05-09T08:33:38.650Z,72.00
2018-05-09T08:36:04.733Z,72.00
2018-05-09T08:38:30.702Z,69.60
2018-05-09T08:40:56.765Z,69.30
2018-05-09T08:43:22.819Z,69.80
2018-05-09T08:45:48.768Z,70.20
2018-05-09T08:48:14.806Z,70.70
2018-05-09T08:50:40.837Z,70.60
2018-05-09T08:53:06.860Z,70.30
2018-05-09T08:55:33.010Z,69.60
2018-05-09T08:57:59.130Z,69.50
2018-05-09T09:00:25.077Z,69.80
2018-05-09T09:02:51.070Z,69.10
2018-05-09T09:05:17.757Z,68.80
2018-05-09T09:07:43.828Z,67.70
2018-05-09T09:10:09.980Z,67.60
2018-05-09T09:12:36.064Z,67.00
2018-05-09T09:15:02.180Z,67.00
2018-05-09T09:17:28.153Z,66.50
2018-05-09T09:19:55.167Z,65.80
2018-05-09T09:22:21.144Z,66.40
2018-05-09T09:24:47.424Z,66.20
2018-05-09T09:44:03.113Z,64.00
2018-05-09T09:46:29.227Z,64.20
2018-05-09T09:48:55.359Z,63.70
2018-05-09T09:51:21.397Z,63.80
2018-05-09T09:53:47.441Z,64.00
2018-05-09T09:56:13.409Z,63.90
2018-05-09T09:58:39.395Z,63.10
2018-05-09T10:01:05.417Z,60.90
2018-05-09T10:03:31.606Z,59.90
2018-05-09T10:05:57.663Z,59.50
2018-05-09T10:08:23.757Z,59.90
2018-05-09T10:10:49.725Z,59.90
2018-05-09T10:13:15.887Z,60.00
2018-05-09T10:15:41.910Z,59.10
2018-05-09T10:18:08.119Z,57.40
2018-05-09T10:20:34.229Z,57.30
2018-05-09T10:23:00.303Z,57.70
2018-05-09T10:25:26.629Z,57.80
2018-05-09T10:27:52.661Z,57.40
2018-05-09T10:30:18.679Z,58.00
2018-05-09T10:32:46.823Z,58.00
2018-05-09T10:35:13.912Z,57.50
2018-05-09T10:37:39.915Z,57.30
2018-05-09T10:40:06.165Z,56.90
2018-05-09T10:42:32.362Z,58.00
2018-05-09T10:44:59.568Z,58.50
2018-05-09T10:47:25.672Z,58.70
2018-05-09T10:49:52.037Z,58.00
2018-05-09T10:52:18.090Z,58.30
2018-05-09T10:54:44.254Z,59.00
2018-05-09T10:57:10.930Z,59.20
2018-05-09T10:59:36.974Z,58.50
2018-05-09T11:02:03.141Z,58.00
2018-05-09T11:04:29.159Z,58.10
2018-05-09T11:06:55.213Z,58.40
2018-05-09T11:09:21.286Z,58.70
2018-05-09T11:11:47.270Z,58.10
2018-05-09T11:14:13.270Z,57.60
2018-05-09T11:16:39.396Z,57.60
2018-05-09T11:19:05.522Z,57.70
2018-05-09T11:38:16.903Z,56.60
2018-05-09T11:40:43.038Z,57.20
2018-05-09T11:43:09.299Z,57.90
2018-05-09T11:45:35.470Z,57.80
2018-05-09T11:48:01.599Z,57.60
2018-05-09T11:50:27.618Z,57.10
2018-05-09T11:52:53.690Z,57.70
2018-05-09T11:55:19.722Z,58.10
2018-05-09T11:57:45.732Z,57.90
2018-05-09T12:00:11.772Z,57.60
2018-05-09T12:02:37.890Z,58.00
2018-05-09T12:05:05.097Z,57.60
2018-05-09T12:07:31.084Z,58.50
2018-05-09T12:09:57.186Z,57.50
2018-05-09T12:12:23.137Z,57.60
2018-05-09T12:14:49.214Z,57.30
2018-05-09T12:17:15.237Z,57.50
2018-05-09T12:19:41.275Z,57.40
2018-05-09T12:36:22.230Z,53.30
2018-05-09T12:38:48.259Z,53.70
2018-05-09T12:41:14.287Z,53.40
2018-05-09T12:43:40.310Z,53.00
2018-05-09T12:46:23.213Z,53.30
2018-05-09T12:48:49.505Z,53.20
2018-05-09T12:51:15.269Z,53.60
2018-05-09T12:53:41.484Z,53.60
2018-05-09T12:56:07.531Z,53.50
2018-05-09T12:58:33.614Z,52.80
2018-05-09T13:00:59.880Z,52.40
2018-05-09T13:03:25.840Z,52.60
2018-05-09T13:05:51.889Z,51.80
2018-05-09T13:08:17.897Z,51.50
2018-05-09T13:10:43.899Z,52.10
2018-05-09T13:13:10.203Z,52.30
2018-05-09T13:15:36.256Z,52.40
2018-05-09T13:18:02.282Z,52.80
2018-05-09T13:20:28.333Z,52.80
2018-05-09T13:22:54.421Z,52.40
2018-05-09T13:25:20.504Z,51.70
2018-05-09T13:27:47.208Z,50.80
2018-05-09T13:30:13.258Z,49.80
2018-05-09T13:32:39.744Z,49.00
2018-05-09T13:35:05.861Z,48.80
2018-05-09T13:37:32.683Z,48.20
2018-05-09T13:39:58.790Z,47.40
2018-05-09T13:42:25.083Z,46.90
2018-05-09T13:44:51.078Z,46.30
2018-05-09T13:47:17.719Z,47.00
2018-05-09T13:49:43.779Z,47.00
2018-05-09T13:52:09.738Z,47.00
2018-05-09T13:54:35.748Z,47.20
2018-05-09T13:57:02.462Z,48.00
2018-05-09T13:59:28.631Z,48.50
2018-05-09T14:01:54.686Z,48.90
2018-05-09T14:04:20.824Z,49.50
2018-05-09T14:06:46.823Z,49.90
2018-05-09T14:09:12.915Z,50.10
2018-05-09T14:11:39.209Z,50.60
2018-05-09T14:14:05.478Z,50.60
2018-05-09T14:16:31.843Z,50.50
2018-05-09T14:18:57.848Z,50.70
2018-05-09T14:21:23.973Z,50.90
2018-05-09T14:23:50.028Z,51.30
2018-05-09T14:26:16.717Z,50.70
2018-05-09T14:28:42.851Z,51.30
2018-05-09T14:31:09.823Z,50.80
2018-05-09T14:33:35.872Z,49.70
2018-05-09T14:36:01.941Z,49.20
2018-05-09T14:38:27.990Z,49.50
2018-05-09T14:40:54.934Z,50.00
2018-05-09T14:43:21.033Z,49.70
2018-05-09T14:45:47.074Z,49.90
2018-05-09T14:48:15.027Z,49.20
2018-05-09T14:50:41.387Z,48.70
2018-05-09T14:53:07.521Z,48.50
2018-05-09T14:55:34.511Z,48.40
2018-05-09T14:58:00.531Z,48.30
2018-05-09T15:00:26.628Z,48.50
2018-05-09T15:02:52.677Z,48.10
2018-05-09T15:05:18.757Z,47.80
2018-05-09T15:07:44.774Z,47.30
2018-05-09T15:10:11.719Z,47.30
2018-05-09T15:12:37.724Z,46.70
2018-05-09T15:15:03.719Z,42.40
2018-05-09T15:17:29.752Z,41.70
2018-05-09T15:19:55.878Z,41.00
2018-05-09T15:22:22.039Z,41.30
2018-05-09T15:24:48.244Z,40.00
2018-05-09T15:27:14.380Z,39.80
2018-05-09T15:29:40.410Z,39.50
2018-05-09T15:32:06.808Z,39.80
2018-05-09T15:34:32.875Z,40.70
2018-05-09T15:36:58.950Z,40.40
2018-05-09T15:53:38.811Z,39.00
2018-05-09T15:56:04.874Z,37.90
2018-05-09T15:58:30.939Z,37.10
2018-05-09T16:00:57.140Z,36.90
2018-05-09T16:03:23.282Z,36.60
2018-05-09T16:05:49.361Z,36.10
2018-05-09T16:08:15.389Z,36.30
2018-05-09T16:10:41.479Z,35.90
2018-05-09T16:13:08.213Z,35.50
2018-05-09T16:15:34.531Z,35.50
2018-05-09T16:18:00.632Z,35.80
2018-05-09T16:20:26.776Z,33.80
2018-05-09T16:22:53.185Z,33.70
2018-05-09T16:25:19.412Z,34.20
2018-05-09T16:27:45.674Z,34.00
2018-05-09T16:30:11.895Z,33.00
2018-05-09T16:32:38.262Z,32.40
2018-05-09T16:35:04.618Z,32.20
2018-05-09T16:37:30.869Z,32.20
2018-05-09T16:39:57.853Z,32.50
2018-05-09T16:42:24.098Z,32.50
2018-05-09T16:44:50.094Z,32.20
2018-05-09T16:47:16.556Z,32.00
2018-05-09T16:49:43.609Z,32.10
2018-05-09T16:52:09.631Z,32.20
2018-05-09T16:54:35.743Z,31.70
2018-05-09T16:57:02.520Z,31.70
2018-05-09T16:59:28.672Z,31.90
2018-05-09T17:01:54.746Z,31.90
2018-05-09T17:04:20.898Z,31.20
2018-05-09T17:06:47.420Z,31.10
2018-05-09T17:09:17.599Z,31.30
2018-05-09T17:11:43.693Z,31.40
2018-05-09T17:14:09.694Z,31.50
2018-05-09T17:16:35.731Z,32.80
2018-05-09T17:19:02.730Z,32.00
2018-05-09T17:24:36.418Z,31.90
2018-05-09T17:27:03.898Z,31.70
2018-05-09T17:29:29.946Z,31.70
2018-05-09T17:31:56.249Z,31.30
2018-05-09T17:34:22.361Z,31.70
2018-05-09T17:36:49.003Z,31.50
2018-05-09T17:39:16.745Z,32.20
2018-05-09T17:41:43.754Z,32.40
2018-05-09T17:44:10.181Z,32.30
2018-05-09T17:46:37.002Z,32.40
2018-05-09T17:49:05.126Z,32.10
2018-05-09T17:51:31.171Z,32.60
2018-05-09T17:53:58.076Z,32.50
2018-05-09T17:56:25.479Z,32.40
2018-05-09T17:58:51.837Z,32.30
2018-05-09T18:01:17.917Z,32.40
2018-05-09T18:03:44.096Z,32.30
2018-05-09T18:06:10.779Z,32.90
2018-05-09T18:08:37.833Z,32.90
2018-05-09T18:11:11.949Z,33.00
2018-05-09T18:13:38.231Z,33.00
2018-05-09T18:16:04.350Z,32.80
2018-05-09T18:18:31.126Z,32.80
2018-05-09T18:20:57.843Z,32.60
2018-05-09T18:23:24.006Z,32.30
2018-05-09T18:25:50.102Z,32.40
2018-05-09T18:28:16.315Z,33.30
2018-05-09T18:30:43.028Z,34.00
2018-05-09T18:33:09.098Z,34.80
2018-05-09T18:35:35.141Z,35.70
2018-05-09T18:38:01.173Z,36.10
2018-05-09T18:40:27.234Z,36.80
2018-05-09T18:42:53.527Z,37.70
2018-05-09T18:45:19.594Z,38.30
2018-05-09T18:47:52.490Z,39.10
2018-05-09T18:50:18.484Z,39.30
2018-05-09T18:52:45.945Z,39.10
2018-05-09T18:55:13.334Z,39.80
2018-05-09T18:57:39.339Z,40.30
2018-05-09T19:00:05.358Z,40.70
2018-05-09T19:02:31.483Z,41.90
2018-05-09T19:04:57.661Z,42.30
2018-05-09T19:07:25.171Z,42.50
2018-05-09T19:09:51.317Z,42.40
2018-05-09T19:12:17.501Z,42.60
2018-05-09T19:14:43.573Z,43.00
2018-05-09T19:17:09.676Z,43.30
2018-05-09T19:19:35.784Z,43.70
2018-05-09T19:22:02.005Z,44.90
2018-05-09T19:24:28.808Z,45.70
2018-05-09T19:26:57.041Z,47.00
2018-05-09T19:29:24.021Z,49.00
2018-05-09T19:31:51.380Z,49.00
2018-05-09T19:34:18.124Z,49.20
2018-05-09T19:36:44.273Z,49.30
2018-05-09T19:39:10.307Z,49.10
2018-05-09T19:41:36.594Z,49.10
2018-05-09T19:44:02.900Z,48.60
2018-05-09T19:46:29.071Z,48.80
2018-05-09T19:48:56.084Z,49.30
2018-05-09T19:51:22.218Z,49.70
2018-05-09T19:53:49.157Z,50.30
2018-05-09T19:56:17.366Z,50.40
2018-05-09T19:58:43.693Z,50.70
2018-05-09T20:01:09.877Z,50.80
2018-05-09T20:03:36.246Z,50.60
2018-05-09T20:06:03.257Z,51.00
2018-05-09T20:08:29.441Z,51.00
2018-05-09T20:10:55.630Z,50.60
2018-05-09T20:13:21.949Z,50.80
2018-05-09T20:15:48.177Z,50.80
2018-05-09T20:18:17.335Z,50.60
2018-05-09T20:20:45.920Z,50.00
2018-05-09T20:23:12.150Z,50.30
2018-05-09T20:39:46.625Z,52.70
2018-05-09T21:00:21.942Z,56.10
2018-05-09T21:02:48.793Z,56.70
2018-05-09T21:05:23.497Z,56.50
2018-05-09T21:07:56.829Z,56.70
2018-05-09T21:27:10.401Z,57.30
2018-05-09T21:29:38.573Z,57.90
2018-05-09T21:32:06.346Z,58.10
2018-05-09T21:34:32.651Z,58.10
2018-05-09T21:36:59.461Z,58.50
2018-05-09T21:39:25.572Z,57.70
2018-05-09T21:41:51.562Z,57.70
2018-05-09T21:44:17.612Z,57.70
2018-05-09T21:46:43.986Z,57.80
2018-05-09T21:49:10.049Z,57.50
2018-05-09T21:51:37.549Z,57.80
2018-05-09T21:54:06.888Z,57.40
2018-05-09T21:56:33.159Z,57.30
2018-05-09T21:58:59.337Z,57.20
2018-05-09T22:01:25.356Z,57.50
2018-05-09T22:03:51.427Z,57.80
2018-05-09T22:06:17.549Z,57.70
2018-05-09T22:08:43.644Z,57.80
2018-05-09T22:11:10.029Z,57.50
2018-05-09T22:13:36.086Z,57.70
2018-05-09T22:16:03.416Z,57.50
2018-05-09T22:18:29.468Z,57.70
2018-05-09T22:20:55.648Z,58.30
2018-05-09T22:23:21.747Z,58.20
2018-05-09T22:25:48.892Z,59.30
2018-05-09T22:28:15.943Z,58.90
2018-05-09T22:30:42.771Z,59.10
2018-05-09T22:33:09.858Z,59.50
2018-05-09T22:35:36.123Z,59.90
2018-05-09T22:38:02.124Z,60.50
2018-05-09T22:40:28.474Z,60.60
2018-05-09T22:42:54.620Z,61.40
2018-05-09T22:45:20.987Z,61.90
2018-05-09T22:47:47.038Z,62.50
2018-05-09T22:50:13.202Z,63.10
2018-05-09T22:52:39.278Z,63.90
2018-05-09T22:55:06.628Z,64.50
2018-05-09T22:57:33.857Z,66.00
2018-05-09T23:00:00.091Z,66.80
2018-05-09T23:02:26.984Z,67.80
2018-05-09T23:04:53.038Z,68.90
2018-05-09T23:07:19.028Z,70.50
2018-05-09T23:09:45.006Z,71.90
2018-05-09T23:12:11.014Z,73.50
2018-05-09T23:14:36.996Z,75.00
2018-05-09T23:17:03.116Z,75.70
2018-05-09T23:19:29.061Z,76.90
2018-05-09T23:21:55.170Z,77.80
2018-05-09T23:24:21.227Z,78.60
2018-05-09T23:26:49.624Z,79.20
2018-05-09T23:29:16.059Z,80.30
2018-05-09T23:31:42.086Z,81.90
2018-05-09T23:34:08.098Z,82.80
2018-05-09T23:36:34.106Z,83.40
2018-05-09T23:39:00.150Z,84.50
2018-05-09T23:41:26.179Z,85.70
2018-05-09T23:43:52.144Z,86.70
2018-05-09T23:46:18.115Z,87.30
2018-05-09T23:48:44.072Z,88.00
2018-05-09T23:51:10.165Z,88.50
2018-05-09T23:53:36.133Z,88.80
2018-05-09T23:56:02.266Z,88.70
2018-05-09T23:58:28.286Z,89.30
